createdAt,value
2016-10-16T00:00:32.108Z,1036.78
2016-10-16T00:01:32.102Z,1036.77
2016-10-16T00:02:32.091Z,1036.79
2016-10-16T00:03:32.083Z,1036.78
2016-10-16T00:04:32.075Z,1036.79
2016-10-16T00:05:32.069Z,1036.74
2016-10-16T00:06:32.059Z,1036.8
2016-10-16T00:07:32.052Z,1036.8
2016-10-16T00:08:32.043Z,1036.81
2016-10-16T00:09:32.034Z,1036.83
2016-10-16T00:10:32.026Z,1036.83
2016-10-16T00:11:32.019Z,1036.86
2016-10-16T00:12:32.010Z,1036.88
2016-10-16T00:13:32.003Z,1036.89
2016-10-16T00:14:31.993Z,1036.92
2016-10-16T00:15:31.985Z,1036.9
2016-10-16T00:16:31.978Z,1036.88
2016-10-16T00:17:31.970Z,1036.89
2016-10-16T00:18:31.960Z,1036.85
2016-10-16T00:19:31.954Z,1036.86
2016-10-16T00:20:31.944Z,1036.84
2016-10-16T00:21:31.936Z,1036.82
2016-10-16T00:22:31.930Z,1036.81
2016-10-16T00:23:31.922Z,1036.82
2016-10-16T00:24:31.911Z,1036.84
2016-10-16T00:25:31.903Z,1036.78
2016-10-16T00:26:31.897Z,1036.8
2016-10-16T00:27:31.890Z,1036.81
2016-10-16T00:28:31.878Z,1036.78
2016-10-16T00:29:31.872Z,1036.8
2016-10-16T00:30:31.865Z,1036.83
2016-10-16T00:31:31.856Z,1036.84
2016-10-16T00:32:31.846Z,1036.82
2016-10-16T00:33:31.840Z,1036.84
2016-10-16T00:34:31.830Z,1036.82
2016-10-16T00:35:32.412Z,1036.81
2016-10-16T00:36:31.814Z,1036.82
2016-10-16T00:37:32.425Z,1036.84
2016-10-16T00:38:31.797Z,1036.82
2016-10-16T00:39:31.788Z,1036.86
2016-10-16T00:40:31.782Z,1036.88
2016-10-16T00:41:31.773Z,1036.89
2016-10-16T00:42:31.765Z,1036.93
2016-10-16T00:43:31.758Z,1036.88
2016-10-16T00:44:31.748Z,1036.94
2016-10-16T00:45:32.980Z,1036.92
2016-10-16T00:46:31.731Z,1036.89
2016-10-16T00:47:31.724Z,1036.91
2016-10-16T00:48:31.716Z,1036.9
2016-10-16T00:49:31.709Z,1036.91
2016-10-16T00:50:31.702Z,1036.87
2016-10-16T00:51:31.696Z,1036.9
2016-10-16T00:52:31.683Z,1036.92
2016-10-16T00:53:31.677Z,1036.85
2016-10-16T00:54:31.667Z,1036.86
2016-10-16T00:55:31.661Z,1036.84
2016-10-16T00:56:31.653Z,1036.84
2016-10-16T00:57:31.642Z,1036.83
2016-10-16T00:58:31.634Z,1036.83
2016-10-16T00:59:31.627Z,1036.79
2016-10-16T01:00:31.621Z,1036.77
2016-10-16T01:01:31.612Z,1036.75
2016-10-16T01:02:31.603Z,1036.75
2016-10-16T01:03:31.597Z,1036.71
2016-10-16T01:04:31.588Z,1036.71
2016-10-16T01:05:31.578Z,1036.73
2016-10-16T01:06:31.573Z,1036.68
2016-10-16T01:07:31.566Z,1036.72
2016-10-16T01:08:31.554Z,1036.7
2016-10-16T01:09:31.548Z,1036.71
2016-10-16T01:10:31.538Z,1036.76
2016-10-16T01:11:31.532Z,1036.7
2016-10-16T01:12:31.525Z,1036.68
2016-10-16T01:13:31.526Z,1036.64
2016-10-16T01:14:31.506Z,1036.65
2016-10-16T01:15:31.500Z,1036.64
2016-10-16T01:16:31.492Z,1036.65
2016-10-16T01:17:31.484Z,1036.66
2016-10-16T01:18:31.474Z,1036.63
2016-10-16T01:19:31.466Z,1036.66
2016-10-16T01:20:31.458Z,1036.62
2016-10-16T01:21:31.450Z,1036.62
2016-10-16T01:22:31.442Z,1036.64
2016-10-16T01:23:31.434Z,1036.64
2016-10-16T01:24:31.428Z,1036.67
2016-10-16T01:25:31.418Z,1036.65
2016-10-16T01:26:31.411Z,1036.7
2016-10-16T01:27:31.404Z,1036.7
2016-10-16T01:28:31.396Z,1036.67
2016-10-16T01:29:31.389Z,1036.68
2016-10-16T01:30:31.378Z,1036.7
2016-10-16T01:31:31.373Z,1036.72
2016-10-16T01:32:31.362Z,1036.76
2016-10-16T01:33:31.356Z,1036.76
2016-10-16T01:34:31.348Z,1036.79
2016-10-16T01:35:31.339Z,1036.84
2016-10-16T01:36:31.333Z,1036.84
2016-10-16T01:37:31.324Z,1036.79
2016-10-16T01:38:31.314Z,1036.8
2016-10-16T01:39:31.307Z,1036.8
2016-10-16T01:40:31.301Z,1036.8
2016-10-16T01:41:31.291Z,1036.78
2016-10-16T01:42:31.284Z,1036.75
2016-10-16T01:43:31.274Z,1036.75
2016-10-16T01:44:31.268Z,1036.78
2016-10-16T01:45:31.260Z,1036.86
2016-10-16T01:46:31.252Z,1036.84
2016-10-16T01:47:31.242Z,1036.83
2016-10-16T01:48:31.235Z,1036.8
2016-10-16T01:49:31.228Z,1036.82
2016-10-16T01:50:31.218Z,1036.89
2016-10-16T01:51:31.819Z,1036.85
2016-10-16T01:52:31.204Z,1036.82
2016-10-16T01:53:31.471Z,1036.84
2016-10-16T01:54:31.479Z,1036.85
2016-10-16T01:55:31.177Z,1036.85
2016-10-16T01:56:31.944Z,1036.89
2016-10-16T01:57:31.162Z,1036.92
2016-10-16T01:58:31.156Z,1036.93
2016-10-16T01:59:31.147Z,1036.91
2016-10-16T02:00:31.440Z,1036.94
2016-10-16T02:01:31.130Z,1036.97
2016-10-16T02:02:32.421Z,1036.97
2016-10-16T02:03:31.117Z,1036.95
2016-10-16T02:04:31.108Z,1036.97
2016-10-16T02:05:31.100Z,1037.02
2016-10-16T02:06:31.089Z,1037.04
2016-10-16T02:07:31.081Z,1037.05
2016-10-16T02:08:31.076Z,1037.04
2016-10-16T02:09:31.066Z,1037.03
2016-10-16T02:10:31.059Z,1037.02
2016-10-16T02:11:31.051Z,1037.03
2016-10-16T02:12:31.041Z,1037.06
2016-10-16T02:13:31.035Z,1037.05
2016-10-16T02:14:31.025Z,1037.04
2016-10-16T02:15:31.017Z,1037.02
2016-10-16T02:16:31.012Z,1037.06
2016-10-16T02:17:31.002Z,1037.04
2016-10-16T02:18:30.995Z,1037.04
2016-10-16T02:19:30.985Z,1037.05
2016-10-16T02:20:30.979Z,1037.03
2016-10-16T02:21:30.971Z,1037.01
2016-10-16T02:22:30.961Z,1037.08
2016-10-16T02:23:30.954Z,1037.01
2016-10-16T02:24:30.948Z,1036.99
2016-10-16T02:25:30.937Z,1036.97
2016-10-16T02:26:30.930Z,1036.92
2016-10-16T02:27:30.921Z,1036.94
2016-10-16T02:28:30.912Z,1036.96
2016-10-16T02:29:30.905Z,1036.92
2016-10-16T02:30:30.897Z,1036.94
2016-10-16T02:31:30.892Z,1036.99
2016-10-16T02:32:30.883Z,1037.03
2016-10-16T02:33:30.873Z,1037.05
2016-10-16T02:34:30.867Z,1037.08
2016-10-16T02:35:30.860Z,1037.06
2016-10-16T02:36:30.851Z,1037.1
2016-10-16T02:37:30.844Z,1037.1
2016-10-16T02:38:30.837Z,1037.1
2016-10-16T02:39:30.829Z,1037.07
2016-10-16T02:40:30.819Z,1037.1
2016-10-16T02:41:30.814Z,1037.08
2016-10-16T02:42:30.816Z,1037.07
2016-10-16T02:43:30.797Z,1037.12
2016-10-16T02:44:30.790Z,1037.07
2016-10-16T02:45:30.780Z,1037.09
2016-10-16T02:46:30.773Z,1037.12
2016-10-16T02:47:30.766Z,1037.08
2016-10-16T02:48:30.758Z,1037.12
2016-10-16T02:49:30.751Z,1037.12
2016-10-16T02:50:30.742Z,1037.12
2016-10-16T02:51:30.734Z,1037.08
2016-10-16T02:52:30.725Z,1037.09
2016-10-16T02:53:30.719Z,1037.09
2016-10-16T02:54:30.708Z,1037.1
2016-10-16T02:55:30.703Z,1037.09
2016-10-16T02:56:30.693Z,1037.12
2016-10-16T02:57:30.684Z,1037.11
2016-10-16T02:58:30.679Z,1037.09
2016-10-16T02:59:30.669Z,1037.08
2016-10-16T03:00:30.663Z,1037.09
2016-10-16T03:01:30.655Z,1037.13
2016-10-16T03:02:30.647Z,1037.13
2016-10-16T03:03:30.637Z,1037.14
2016-10-16T03:04:30.632Z,1037.12
2016-10-16T03:05:30.621Z,1037.1
2016-10-16T03:06:30.613Z,1037.09
2016-10-16T03:07:30.608Z,1037.16
2016-10-16T03:08:30.599Z,1037.15
2016-10-16T03:09:30.592Z,1037.16
2016-10-16T03:10:31.177Z,1037.22
2016-10-16T03:11:30.574Z,1037.22
2016-10-16T03:12:31.092Z,1037.23
2016-10-16T03:13:30.558Z,1037.23
2016-10-16T03:14:30.550Z,1037.26
2016-10-16T03:15:30.544Z,1037.27
2016-10-16T03:16:30.536Z,1037.3
2016-10-16T03:17:30.526Z,1037.32
2016-10-16T03:18:30.519Z,1037.31
2016-10-16T03:19:30.983Z,1037.32
2016-10-16T03:20:30.502Z,1037.31
2016-10-16T03:21:31.928Z,1037.29
2016-10-16T03:22:30.489Z,1037.29
2016-10-16T03:23:30.481Z,1037.28
2016-10-16T03:24:30.473Z,1037.3
2016-10-16T03:25:30.463Z,1037.35
2016-10-16T03:26:30.590Z,1037.38
2016-10-16T03:27:30.453Z,1037.39
2016-10-16T03:28:30.441Z,1037.48
2016-10-16T03:29:30.431Z,1037.47
2016-10-16T03:30:30.423Z,1037.48
2016-10-16T03:31:30.417Z,1037.46
2016-10-16T03:32:30.407Z,1037.44
2016-10-16T03:33:30.402Z,1037.45
2016-10-16T03:34:30.393Z,1037.42
2016-10-16T03:35:30.384Z,1037.45
2016-10-16T03:36:30.378Z,1037.43
2016-10-16T03:37:30.370Z,1037.42
2016-10-16T03:38:30.359Z,1037.48
2016-10-16T03:39:30.351Z,1037.53
2016-10-16T03:40:30.344Z,1037.53
2016-10-16T03:41:30.337Z,1037.55
2016-10-16T03:42:30.327Z,1037.58
2016-10-16T03:43:30.321Z,1037.54
2016-10-16T03:44:30.312Z,1037.54
2016-10-16T03:45:30.303Z,1037.52
2016-10-16T03:46:30.297Z,1037.57
2016-10-16T03:47:30.289Z,1037.54
2016-10-16T03:48:30.280Z,1037.54
2016-10-16T03:49:30.271Z,1037.49
2016-10-16T03:50:30.265Z,1037.45
2016-10-16T03:51:30.258Z,1037.45
2016-10-16T03:52:30.247Z,1037.42
2016-10-16T03:53:30.239Z,1037.42
2016-10-16T03:54:30.233Z,1037.38
2016-10-16T03:55:30.224Z,1037.38
2016-10-16T03:56:30.215Z,1037.33
2016-10-16T03:57:30.209Z,1037.35
2016-10-16T03:58:30.199Z,1037.31
2016-10-16T03:59:30.192Z,1037.23
2016-10-16T04:00:30.185Z,1037.24
2016-10-16T04:01:30.175Z,1037.23
2016-10-16T04:02:30.168Z,1037.23
2016-10-16T04:03:30.161Z,1037.28
2016-10-16T04:04:30.154Z,1037.26
2016-10-16T04:05:30.146Z,1037.28
2016-10-16T04:06:30.138Z,1037.28
2016-10-16T04:07:30.128Z,1037.25
2016-10-16T04:08:30.120Z,1037.29
2016-10-16T04:09:30.113Z,1037.26
2016-10-16T04:10:30.107Z,1037.3
2016-10-16T04:11:30.099Z,1037.33
2016-10-16T04:12:30.090Z,1037.31
2016-10-16T04:13:30.084Z,1037.28
2016-10-16T04:14:30.073Z,1037.34
2016-10-16T04:15:30.066Z,1037.35
2016-10-16T04:16:30.061Z,1037.44
2016-10-16T04:17:30.052Z,1037.48
2016-10-16T04:18:30.044Z,1037.51
2016-10-16T04:19:30.036Z,1037.66
2016-10-16T04:20:30.027Z,1037.68
2016-10-16T04:21:30.020Z,1037.75
2016-10-16T04:22:30.012Z,1037.8
2016-10-16T04:23:30.003Z,1037.81
2016-10-16T04:24:29.996Z,1037.84
2016-10-16T04:25:29.988Z,1037.83
2016-10-16T04:26:29.980Z,1037.86
2016-10-16T04:27:29.972Z,1037.81
2016-10-16T04:29:29.956Z,1037.84
2016-10-16T04:30:29.946Z,1037.81
2016-10-16T04:31:29.938Z,1037.83
2016-10-16T04:32:29.929Z,1037.84
2016-10-16T04:33:30.120Z,1037.8
2016-10-16T04:34:29.916Z,1037.82
2016-10-16T04:35:30.140Z,1037.85
2016-10-16T04:36:29.899Z,1037.81
2016-10-16T04:37:30.967Z,1037.88
2016-10-16T04:38:31.640Z,1037.91
2016-10-16T04:39:29.876Z,1037.95
2016-10-16T04:40:29.865Z,1037.94
2016-10-16T04:41:29.859Z,1037.98
2016-10-16T04:42:29.851Z,1038.05
2016-10-16T04:43:29.842Z,1038.1
2016-10-16T04:44:29.832Z,1038.13
2016-10-16T04:45:29.825Z,1038.14
2016-10-16T04:46:29.818Z,1038.2
2016-10-16T04:47:29.808Z,1038.15
2016-10-16T04:48:29.801Z,1038.18
2016-10-16T04:49:29.791Z,1038.18
2016-10-16T04:50:29.785Z,1038.17
2016-10-16T04:51:29.777Z,1038.14
2016-10-16T04:52:29.766Z,1038.16
2016-10-16T04:53:29.759Z,1038.14
2016-10-16T04:54:29.750Z,1038.12
2016-10-16T04:55:29.743Z,1038.11
2016-10-16T04:56:29.736Z,1038.14
2016-10-16T04:57:29.726Z,1038.16
2016-10-16T04:58:29.717Z,1038.23
2016-10-16T04:59:29.711Z,1038.26
2016-10-16T05:00:29.701Z,1038.25
2016-10-16T05:01:29.695Z,1038.25
2016-10-16T05:02:29.686Z,1038.23
2016-10-16T05:03:29.678Z,1038.23
2016-10-16T05:04:29.668Z,1038.25
2016-10-16T05:05:29.660Z,1038.26
2016-10-16T05:06:29.651Z,1038.28
2016-10-16T05:07:29.645Z,1038.31
2016-10-16T05:08:29.638Z,1038.34
2016-10-16T05:09:29.628Z,1038.39
2016-10-16T05:10:29.621Z,1038.39
2016-10-16T05:11:29.611Z,1038.43
2016-10-16T05:12:29.605Z,1038.44
2016-10-16T05:13:29.596Z,1038.42
2016-10-16T05:14:29.586Z,1038.39
2016-10-16T05:15:29.580Z,1038.38
2016-10-16T05:16:29.571Z,1038.37
2016-10-16T05:17:29.563Z,1038.35
2016-10-16T05:18:29.553Z,1038.32
2016-10-16T05:19:29.545Z,1038.29
2016-10-16T05:20:29.536Z,1038.34
2016-10-16T05:21:29.530Z,1038.35
2016-10-16T05:22:29.522Z,1038.34
2016-10-16T05:23:29.514Z,1038.36
2016-10-16T05:24:29.503Z,1038.4
2016-10-16T05:25:29.497Z,1038.39
2016-10-16T05:26:29.489Z,1038.39
2016-10-16T05:27:29.478Z,1038.46
2016-10-16T05:28:29.472Z,1038.47
2016-10-16T05:29:29.464Z,1038.56
2016-10-16T05:30:29.456Z,1038.54
2016-10-16T05:31:29.449Z,1038.55
2016-10-16T05:32:29.440Z,1038.54
2016-10-16T05:33:29.429Z,1038.57
2016-10-16T05:34:29.421Z,1038.61
2016-10-16T05:35:29.412Z,1038.62
2016-10-16T05:36:29.406Z,1038.67
2016-10-16T05:37:29.396Z,1038.7
2016-10-16T05:38:29.387Z,1038.7
2016-10-16T05:39:29.381Z,1038.72
2016-10-16T05:40:29.370Z,1038.64
2016-10-16T05:41:29.364Z,1038.63
2016-10-16T05:42:29.355Z,1038.61
2016-10-16T05:43:29.345Z,1038.61
2016-10-16T05:44:29.339Z,1038.63
2016-10-16T05:45:29.329Z,1038.57
2016-10-16T05:46:29.322Z,1038.59
2016-10-16T05:47:29.314Z,1038.58
2016-10-16T05:48:30.581Z,1038.6
2016-10-16T05:49:30.218Z,1038.6
2016-10-16T05:50:29.286Z,1038.61
2016-10-16T05:51:29.977Z,1038.56
2016-10-16T05:52:29.270Z,1038.59
2016-10-16T05:53:29.261Z,1038.61
2016-10-16T05:54:29.252Z,1038.6
2016-10-16T05:56:29.236Z,1038.68
2016-10-16T05:57:30.812Z,1038.66
2016-10-16T05:58:29.221Z,1038.72
2016-10-16T05:59:29.213Z,1038.7
2016-10-16T06:00:29.201Z,1038.73
2016-10-16T06:01:29.195Z,1038.7
2016-10-16T06:02:29.187Z,1038.78
2016-10-16T06:03:29.338Z,1038.84
2016-10-16T06:04:29.170Z,1038.82
2016-10-16T06:05:29.162Z,1038.82
2016-10-16T06:06:29.151Z,1038.81
2016-10-16T06:07:29.142Z,1038.88
2016-10-16T06:08:29.136Z,1038.82
2016-10-16T06:09:29.126Z,1038.81
2016-10-16T06:10:29.120Z,1038.83
2016-10-16T06:11:29.109Z,1038.78
2016-10-16T06:12:29.101Z,1038.82
2016-10-16T06:13:29.094Z,1038.83
2016-10-16T06:14:29.084Z,1038.8
2016-10-16T06:15:29.076Z,1038.84
2016-10-16T06:16:29.067Z,1038.87
2016-10-16T06:17:29.059Z,1038.88
2016-10-16T06:18:29.049Z,1038.88
2016-10-16T06:19:29.046Z,1038.87
2016-10-16T06:20:29.033Z,1038.86
2016-10-16T06:21:29.027Z,1038.87
2016-10-16T06:22:29.018Z,1038.88
2016-10-16T06:23:29.008Z,1038.87
2016-10-16T06:24:29.001Z,1038.83
2016-10-16T06:25:28.991Z,1038.88
2016-10-16T06:26:28.982Z,1038.85
2016-10-16T06:27:28.976Z,1038.87
2016-10-16T06:28:28.966Z,1038.92
2016-10-16T06:29:28.957Z,1038.89
2016-10-16T06:30:28.949Z,1038.9
2016-10-16T06:31:28.941Z,1038.94
2016-10-16T06:32:28.933Z,1038.92
2016-10-16T06:33:28.924Z,1038.91
2016-10-16T06:34:28.918Z,1038.9
2016-10-16T06:35:28.909Z,1038.9
2016-10-16T06:36:28.902Z,1038.92
2016-10-16T06:37:28.891Z,1038.91
2016-10-16T06:38:28.885Z,1038.92
2016-10-16T06:39:28.875Z,1038.91
2016-10-16T06:40:28.865Z,1038.85
2016-10-16T06:41:28.857Z,1038.85
2016-10-16T06:42:28.850Z,1038.85
2016-10-16T06:43:28.843Z,1038.85
2016-10-16T06:44:28.832Z,1038.82
2016-10-16T06:45:28.824Z,1038.85
2016-10-16T06:46:28.817Z,1038.82
2016-10-16T06:47:28.816Z,1038.85
2016-10-16T06:48:28.802Z,1038.82
2016-10-16T06:49:28.793Z,1038.82
2016-10-16T06:50:28.786Z,1038.77
2016-10-16T06:51:28.777Z,1038.81
2016-10-16T06:52:28.769Z,1038.84
2016-10-16T06:53:28.761Z,1038.79
2016-10-16T06:54:28.753Z,1038.78
2016-10-16T06:55:28.743Z,1038.76
2016-10-16T06:56:28.737Z,1038.78
2016-10-16T06:57:28.729Z,1038.8
2016-10-16T06:58:28.721Z,1038.83
2016-10-16T06:59:28.710Z,1038.89
2016-10-16T07:00:28.705Z,1038.9
2016-10-16T07:01:28.695Z,1038.95
2016-10-16T07:02:28.686Z,1038.93
2016-10-16T07:03:28.678Z,1038.92
2016-10-16T07:04:28.673Z,1038.95
2016-10-16T07:05:28.665Z,1038.94
2016-10-16T07:06:28.654Z,1038.97
2016-10-16T07:07:28.648Z,1038.97
2016-10-16T07:08:28.639Z,1039
2016-10-16T07:09:28.633Z,1038.98
2016-10-16T07:10:28.622Z,1039
2016-10-16T07:11:28.614Z,1038.97
2016-10-16T07:12:28.607Z,1038.97
2016-10-16T07:13:28.598Z,1038.97
2016-10-16T07:14:28.590Z,1038.93
2016-10-16T07:15:28.588Z,1038.93
2016-10-16T07:16:29.488Z,1039
2016-10-16T07:17:28.568Z,1038.99
2016-10-16T07:18:28.558Z,1038.98
2016-10-16T07:19:28.551Z,1038.95
2016-10-16T07:20:28.543Z,1038.96
2016-10-16T07:21:28.535Z,1038.92
2016-10-16T07:22:28.529Z,1038.88
2016-10-16T07:23:28.522Z,1038.88
2016-10-16T07:24:28.511Z,1038.88
2016-10-16T07:25:28.505Z,1038.96
2016-10-16T07:26:28.498Z,1038.98
2016-10-16T07:27:28.488Z,1038.98
2016-10-16T07:28:28.481Z,1039
2016-10-16T07:29:28.474Z,1038.99
2016-10-16T07:30:28.466Z,1038.98
2016-10-16T07:31:28.457Z,1039
2016-10-16T07:32:28.450Z,1039.02
2016-10-16T07:33:28.440Z,1039.09
2016-10-16T07:34:28.433Z,1039.13
2016-10-16T07:35:28.426Z,1039.12
2016-10-16T07:36:28.417Z,1039.15
2016-10-16T07:37:28.409Z,1039.11
2016-10-16T07:38:28.401Z,1039.1
2016-10-16T07:39:28.393Z,1039.06
2016-10-16T07:40:28.385Z,1039.1
2016-10-16T07:41:28.379Z,1039.1
2016-10-16T07:42:28.369Z,1039.08
2016-10-16T07:43:28.364Z,1039.13
2016-10-16T07:44:28.356Z,1039.15
2016-10-16T07:45:28.347Z,1039.18
2016-10-16T07:46:28.338Z,1039.19
2016-10-16T07:47:28.332Z,1039.21
2016-10-16T07:48:28.323Z,1039.2
2016-10-16T07:49:28.316Z,1039.25
2016-10-16T07:50:28.307Z,1039.24
2016-10-16T07:51:28.302Z,1039.29
2016-10-16T07:52:28.293Z,1039.26
2016-10-16T07:53:28.284Z,1039.28
2016-10-16T07:54:28.277Z,1039.28
2016-10-16T07:55:28.271Z,1039.26
2016-10-16T07:56:28.264Z,1039.24
2016-10-16T07:57:28.255Z,1039.24
2016-10-16T07:58:28.246Z,1039.17
2016-10-16T07:59:28.238Z,1039.19
2016-10-16T08:00:28.231Z,1039.15
2016-10-16T08:01:28.224Z,1039.15
2016-10-16T08:02:28.215Z,1039.14
2016-10-16T08:03:28.207Z,1039.17
2016-10-16T08:04:28.199Z,1039.19
2016-10-16T08:05:28.193Z,1039.22
2016-10-16T08:06:28.186Z,1039.28
2016-10-16T08:07:28.179Z,1039.28
2016-10-16T08:08:28.168Z,1039.24
2016-10-16T08:09:28.161Z,1039.23
2016-10-16T08:10:28.155Z,1039.25
2016-10-16T08:11:28.147Z,1039.23
2016-10-16T08:12:28.138Z,1039.19
2016-10-16T08:13:28.131Z,1039.24
2016-10-16T08:14:28.123Z,1039.24
2016-10-16T08:15:28.115Z,1039.24
2016-10-16T08:16:28.109Z,1039.2
2016-10-16T08:17:28.100Z,1039.13
2016-10-16T08:18:28.092Z,1039.14
2016-10-16T08:19:28.084Z,1039.14
2016-10-16T08:20:28.077Z,1039.15
2016-10-16T08:21:28.071Z,1039.16
2016-10-16T08:22:28.062Z,1039.19
2016-10-16T08:23:28.056Z,1039.19
2016-10-16T08:24:28.046Z,1039.19
2016-10-16T08:25:28.041Z,1039.21
2016-10-16T08:26:28.033Z,1039.19
2016-10-16T08:27:28.026Z,1039.16
2016-10-16T08:28:28.019Z,1039.14
2016-10-16T08:29:28.009Z,1039.11
2016-10-16T08:30:28.003Z,1039.12
2016-10-16T08:31:27.994Z,1039.09
2016-10-16T08:32:27.989Z,1039.09
2016-10-16T08:33:27.980Z,1039.07
2016-10-16T08:34:29.156Z,1039.06
2016-10-16T08:35:28.076Z,1039.04
2016-10-16T08:36:28.853Z,1039.03
2016-10-16T08:37:27.949Z,1039.01
2016-10-16T08:38:27.942Z,1039
2016-10-16T08:39:27.935Z,1039.03
2016-10-16T08:40:27.929Z,1039.05
2016-10-16T08:41:27.922Z,1039.07
2016-10-16T08:42:27.915Z,1039.01
2016-10-16T08:43:27.906Z,1039
2016-10-16T08:44:27.901Z,1039
2016-10-16T08:45:27.891Z,1038.98
2016-10-16T08:46:27.886Z,1038.98
2016-10-16T08:47:27.877Z,1038.94
2016-10-16T08:48:27.869Z,1038.91
2016-10-16T08:49:27.864Z,1038.9
2016-10-16T08:50:27.856Z,1038.87
2016-10-16T08:51:27.850Z,1038.88
2016-10-16T08:52:27.843Z,1038.87
2016-10-16T08:53:27.836Z,1038.89
2016-10-16T08:54:27.827Z,1038.89
2016-10-16T08:55:27.822Z,1038.91
2016-10-16T08:56:27.815Z,1038.94
2016-10-16T08:57:27.809Z,1038.91
2016-10-16T08:58:27.801Z,1038.87
2016-10-16T08:59:27.793Z,1038.85
2016-10-16T09:00:27.787Z,1038.82
2016-10-16T09:01:27.779Z,1038.8
2016-10-16T09:02:27.771Z,1038.8
2016-10-16T09:03:27.766Z,1038.81
2016-10-16T09:04:27.760Z,1038.81
2016-10-16T09:05:27.751Z,1038.87
2016-10-16T09:06:27.746Z,1038.87
2016-10-16T09:07:27.736Z,1038.85
2016-10-16T09:08:27.731Z,1038.83
2016-10-16T09:09:27.724Z,1038.8
2016-10-16T09:10:27.716Z,1038.78
2016-10-16T09:11:27.710Z,1038.75
2016-10-16T09:12:27.705Z,1038.73
2016-10-16T09:13:27.698Z,1038.61
2016-10-16T09:14:27.691Z,1038.57
2016-10-16T09:15:27.683Z,1038.57
2016-10-16T09:16:27.677Z,1038.53
2016-10-16T09:17:27.669Z,1038.48
2016-10-16T09:18:27.664Z,1038.45
2016-10-16T09:19:27.656Z,1038.38
2016-10-16T09:20:27.651Z,1038.36
2016-10-16T09:21:27.642Z,1038.29
2016-10-16T09:22:27.636Z,1038.26
2016-10-16T09:23:27.629Z,1038.23
2016-10-16T09:24:27.624Z,1038.23
2016-10-16T09:25:27.617Z,1038.16
2016-10-16T09:26:27.619Z,1038.13
2016-10-16T09:27:27.604Z,1038.15
2016-10-16T09:28:27.600Z,1038.19
2016-10-16T09:29:27.591Z,1038.22
2016-10-16T09:30:27.586Z,1038.25
2016-10-16T09:31:27.579Z,1038.23
2016-10-16T09:32:27.573Z,1038.25
2016-10-16T09:33:27.566Z,1038.3
2016-10-16T09:34:27.560Z,1038.32
2016-10-16T09:35:27.556Z,1038.37
2016-10-16T09:36:27.547Z,1038.41
2016-10-16T09:37:27.541Z,1038.43
2016-10-16T09:38:27.537Z,1038.47
2016-10-16T09:39:27.529Z,1038.48
2016-10-16T09:40:27.524Z,1038.51
2016-10-16T09:41:29.314Z,1038.52
2016-10-16T09:42:27.512Z,1038.48
2016-10-16T09:43:27.906Z,1038.42
2016-10-16T09:44:27.498Z,1038.43
2016-10-16T09:45:27.492Z,1038.45
2016-10-16T09:46:27.486Z,1038.43
2016-10-16T09:47:27.479Z,1038.46
2016-10-16T09:48:27.473Z,1038.49
2016-10-16T09:49:27.468Z,1038.47
2016-10-16T09:50:27.462Z,1038.46
2016-10-16T09:51:27.455Z,1038.43
2016-10-16T09:52:27.451Z,1038.4
2016-10-16T09:53:27.443Z,1038.38
2016-10-16T09:54:27.438Z,1038.34
2016-10-16T09:55:27.430Z,1038.29
2016-10-16T09:56:27.426Z,1038.23
2016-10-16T09:57:27.504Z,1038.23
2016-10-16T09:58:27.414Z,1038.26
2016-10-16T09:59:27.407Z,1038.27
2016-10-16T10:00:27.400Z,1038.27
2016-10-16T10:01:27.394Z,1038.29
2016-10-16T10:02:27.387Z,1038.28
2016-10-16T10:03:27.384Z,1038.34
2016-10-16T10:04:27.376Z,1038.32
2016-10-16T10:05:27.371Z,1038.32
2016-10-16T10:06:27.367Z,1038.28
2016-10-16T10:07:27.358Z,1038.27
2016-10-16T10:08:27.354Z,1038.22
2016-10-16T10:09:27.345Z,1038.16
2016-10-16T10:10:27.339Z,1038.14
2016-10-16T10:11:27.336Z,1038.14
2016-10-16T10:12:27.327Z,1038.03
2016-10-16T10:13:27.321Z,1038.06
2016-10-16T10:14:27.318Z,1037.96
2016-10-16T10:15:27.312Z,1037.95
2016-10-16T10:16:27.304Z,1037.91
2016-10-16T10:17:27.297Z,1037.9
2016-10-16T10:18:27.292Z,1037.92
2016-10-16T10:19:27.287Z,1037.91
2016-10-16T10:20:27.281Z,1037.87
2016-10-16T10:21:27.274Z,1037.91
2016-10-16T10:22:27.271Z,1037.95
2016-10-16T10:23:27.263Z,1037.93
2016-10-16T10:24:27.259Z,1037.99
2016-10-16T10:25:27.252Z,1038.02
2016-10-16T10:26:27.254Z,1038.09
2016-10-16T10:27:27.240Z,1038.14
2016-10-16T10:28:27.240Z,1038.19
2016-10-16T10:29:27.231Z,1038.26
2016-10-16T10:30:27.224Z,1038.32
2016-10-16T10:31:27.218Z,1038.33
2016-10-16T10:32:27.213Z,1038.28
2016-10-16T10:33:27.210Z,1038.26
2016-10-16T10:34:27.201Z,1038.23
2016-10-16T10:35:27.196Z,1038.23
2016-10-16T10:36:27.190Z,1038.23
2016-10-16T10:37:27.187Z,1038.17
2016-10-16T10:38:27.179Z,1038.16
2016-10-16T10:39:27.175Z,1038.12
2016-10-16T10:40:27.168Z,1038.13
2016-10-16T10:41:27.163Z,1038.1
2016-10-16T10:42:27.159Z,1038.09
2016-10-16T10:43:27.151Z,1038.11
2016-10-16T10:44:27.146Z,1038.14
2016-10-16T10:45:27.142Z,1038.18
2016-10-16T10:46:27.136Z,1038.17
2016-10-16T10:47:27.131Z,1038.2
2016-10-16T10:48:27.124Z,1038.2
2016-10-16T10:49:27.120Z,1038.2
2016-10-16T10:50:27.113Z,1038.17
2016-10-16T10:51:27.107Z,1038.18
2016-10-16T10:52:27.102Z,1038.15
2016-10-16T10:53:27.096Z,1038.08
2016-10-16T10:54:27.093Z,1037.93
2016-10-16T10:55:27.088Z,1037.85
2016-10-16T10:56:27.080Z,1037.82
2016-10-16T10:57:27.075Z,1037.86
2016-10-16T10:58:27.072Z,1037.84
2016-10-16T10:59:27.346Z,1037.91
2016-10-16T11:00:27.061Z,1037.95
2016-10-16T11:01:28.367Z,1038.01
2016-10-16T11:02:27.051Z,1037.98
2016-10-16T11:03:27.043Z,1037.97
2016-10-16T11:04:27.040Z,1037.94
2016-10-16T11:05:27.035Z,1037.89
2016-10-16T11:06:27.028Z,1037.84
2016-10-16T11:07:27.021Z,1037.83
2016-10-16T11:08:27.019Z,1037.79
2016-10-16T11:09:27.014Z,1037.78
2016-10-16T11:10:27.009Z,1037.75
2016-10-16T11:11:27.001Z,1037.78
2016-10-16T11:12:26.998Z,1037.79
2016-10-16T11:13:26.993Z,1037.72
2016-10-16T11:14:26.985Z,1037.68
2016-10-16T11:15:26.983Z,1037.6
2016-10-16T11:16:26.976Z,1037.56
2016-10-16T11:17:26.972Z,1037.52
2016-10-16T11:18:26.967Z,1037.44
2016-10-16T11:19:26.964Z,1037.37
2016-10-16T11:20:26.957Z,1037.34
2016-10-16T11:21:26.953Z,1037.31
2016-10-16T11:22:26.948Z,1037.2
2016-10-16T11:23:26.941Z,1037.19
2016-10-16T11:24:26.938Z,1037.14
2016-10-16T11:25:26.932Z,1037.08
2016-10-16T11:26:26.926Z,1037.09
2016-10-16T11:27:26.921Z,1037.08
2016-10-16T11:28:26.920Z,1037.07
2016-10-16T11:29:26.912Z,1037.09
2016-10-16T11:30:26.907Z,1037.1
2016-10-16T11:31:26.903Z,1037.11
2016-10-16T11:32:26.901Z,1037.25
2016-10-16T11:33:26.896Z,1037.29
2016-10-16T11:34:26.892Z,1037.32
2016-10-16T11:35:26.887Z,1037.34
2016-10-16T11:36:26.882Z,1037.37
2016-10-16T11:37:26.875Z,1037.4
2016-10-16T11:38:26.871Z,1037.45
2016-10-16T11:39:26.870Z,1037.42
2016-10-16T11:40:26.864Z,1037.43
2016-10-16T11:41:26.860Z,1037.48
2016-10-16T11:42:26.855Z,1037.52
2016-10-16T11:43:26.851Z,1037.51
2016-10-16T11:44:26.845Z,1037.6
2016-10-16T11:45:26.840Z,1037.57
2016-10-16T11:46:26.837Z,1037.58
2016-10-16T11:47:26.832Z,1037.57
2016-10-16T11:48:26.828Z,1037.56
2016-10-16T11:49:26.822Z,1037.58
2016-10-16T11:50:26.817Z,1037.57
2016-10-16T11:51:26.813Z,1037.59
2016-10-16T11:52:26.809Z,1037.58
2016-10-16T11:53:26.803Z,1037.58
2016-10-16T11:54:26.800Z,1037.54
2016-10-16T11:55:26.795Z,1037.53
2016-10-16T11:56:26.791Z,1037.51
2016-10-16T11:57:26.784Z,1037.44
2016-10-16T11:58:26.781Z,1037.44
2016-10-16T11:59:26.774Z,1037.36
2016-10-16T12:00:26.772Z,1037.34
2016-10-16T12:01:26.767Z,1037.34
2016-10-16T12:02:26.761Z,1037.32
2016-10-16T12:03:26.756Z,1037.33
2016-10-16T12:04:26.753Z,1037.33
2016-10-16T12:05:26.749Z,1037.39
2016-10-16T12:06:26.744Z,1037.42
2016-10-16T12:07:26.740Z,1037.41
2016-10-16T12:08:26.735Z,1037.43
2016-10-16T12:09:26.730Z,1037.38
2016-10-16T12:10:26.725Z,1037.38